createdAt,value
2023-03-23T15:58:29.548Z,15.33
2023-03-23T16:00:59.209Z,15.60
2023-03-23T16:03:28.283Z,18.43
2023-03-23T16:05:57.555Z,16.57
2023-03-23T16:08:28.524Z,20.53
2023-03-23T16:10:56.971Z,15.93
2023-03-23T16:13:27.924Z,17.73
2023-03-23T16:15:56.411Z,20.87
2023-03-23T16:18:27.736Z,15.43
2023-03-23T16:20:56.271Z,16.17
2023-03-23T16:23:24.893Z,16.87
2023-03-23T16:25:53.285Z,21.27
2023-03-23T16:28:23.388Z,18.70
2023-03-23T16:30:53.243Z,17.93
2023-03-23T16:33:22.446Z,20.93
2023-03-23T16:35:51.285Z,16.03
2023-03-23T16:38:21.428Z,16.90
2023-03-23T16:40:49.991Z,21.33
2023-03-23T16:43:18.467Z,14.13
2023-03-23T16:45:47.435Z,18.53
2023-03-23T16:48:20.531Z,19.13
2023-03-23T16:50:49.493Z,15.27
2023-03-23T16:53:19.561Z,19.97
2023-03-23T16:55:52.031Z,22.60
2023-03-23T16:58:22.530Z,17.40
2023-03-23T17:00:51.781Z,22.10
2023-03-23T17:03:21.949Z,16.03
2023-03-23T17:05:50.735Z,22.07
2023-03-23T17:08:19.093Z,33.20
2023-03-23T17:10:47.934Z,21.97
2023-03-23T17:13:17.978Z,23.47
2023-03-23T17:15:47.237Z,19.47
2023-03-23T17:18:16.026Z,22.07
2023-03-23T17:20:46.028Z,17.83
2023-03-23T17:23:14.635Z,16.57
2023-03-23T17:25:43.156Z,20.93
2023-03-23T17:28:11.941Z,19.17
2023-03-23T17:30:42.255Z,18.27
2023-03-23T17:33:10.831Z,20.77
2023-03-23T17:35:39.235Z,22.17
2023-03-23T17:38:11.335Z,22.50
2023-03-23T17:40:39.670Z,28.57
2023-03-23T17:43:12.182Z,23.13
2023-03-23T17:45:40.952Z,20.40
2023-03-23T17:48:11.157Z,19.27
2023-03-23T17:50:39.697Z,21.80
2023-03-23T17:53:10.782Z,22.80
2023-03-23T17:55:41.093Z,19.30
2023-03-23T17:58:09.757Z,15.60
2023-03-23T18:00:38.744Z,17.33
2023-03-23T18:03:07.270Z,14.17
2023-03-23T18:05:38.273Z,11.73
2023-03-23T18:08:09.621Z,13.53
2023-03-23T18:10:40.133Z,13.63
2023-03-23T18:13:17.614Z,11.83
2023-03-23T18:15:47.083Z,10.97
2023-03-23T18:18:18.797Z,12.20
2023-03-23T18:20:49.750Z,10.30
2023-03-23T18:23:26.996Z,9.27
2023-03-23T18:26:05.464Z,17.97
2023-03-23T18:28:33.933Z,13.10
2023-03-23T18:31:04.860Z,18.53
2023-03-23T18:33:33.238Z,16.87
2023-03-23T18:36:01.985Z,14.43
2023-03-23T18:38:30.741Z,19.63
2023-03-23T18:40:59.153Z,16.07
2023-03-23T18:43:28.990Z,10.60
2023-03-23T18:46:00.800Z,13.20
2023-03-23T18:48:29.393Z,11.10
2023-03-23T18:51:14.190Z,14.00
2023-03-23T18:53:42.726Z,16.37
2023-03-23T18:56:11.691Z,11.80
2023-03-23T18:58:48.965Z,15.93
2023-03-23T19:01:18.378Z,17.43
2023-03-23T19:03:46.909Z,13.73
2023-03-23T19:06:16.426Z,10.67
2023-03-23T19:08:45.303Z,12.73
2023-03-23T19:11:15.593Z,17.87
2023-03-23T19:14:01.670Z,12.53
2023-03-23T19:16:32.690Z,12.23
2023-03-23T19:19:02.192Z,17.30
2023-03-23T19:21:31.959Z,16.53
2023-03-23T19:24:01.248Z,14.70
2023-03-23T19:26:33.137Z,12.80
2023-03-23T19:29:25.430Z,10.20
2023-03-23T19:31:55.255Z,14.87
2023-03-23T19:34:24.047Z,15.40
2023-03-23T19:37:03.206Z,13.37
2023-03-23T19:39:33.992Z,9.37
2023-03-23T19:42:04.994Z,13.03
2023-03-23T19:44:42.984Z,13.17
2023-03-23T19:47:17.460Z,12.27
2023-03-23T19:49:51.872Z,12.83
2023-03-23T19:52:21.241Z,17.43
2023-03-23T19:54:49.940Z,12.77
2023-03-23T19:57:18.874Z,13.07
2023-03-23T19:59:49.069Z,14.93
2023-03-23T20:02:17.764Z,15.53
2023-03-23T20:04:46.879Z,23.80
2023-03-23T20:07:15.731Z,15.53
2023-03-23T20:09:44.863Z,11.70
2023-03-23T20:12:14.720Z,14.63
2023-03-23T20:14:45.605Z,14.03
2023-03-23T20:17:15.777Z,11.73
2023-03-23T20:19:44.721Z,14.17
2023-03-23T20:22:14.475Z,12.60
2023-03-23T20:24:45.279Z,15.37
2023-03-23T20:27:13.972Z,14.33
2023-03-23T20:29:42.555Z,14.47
2023-03-23T20:32:12.612Z,13.77
2023-03-23T20:34:43.806Z,22.03
2023-03-23T20:37:16.135Z,20.00
2023-03-23T20:39:45.693Z,22.73
2023-03-23T20:42:14.404Z,13.13
2023-03-23T20:44:44.297Z,15.80
2023-03-23T20:47:13.023Z,17.53
2023-03-23T20:49:42.868Z,15.53
2023-03-23T20:52:22.935Z,15.63
2023-03-23T20:54:51.476Z,14.43
2023-03-23T20:57:21.039Z,15.73
2023-03-23T20:59:49.718Z,13.73
2023-03-23T21:02:19.195Z,15.20
2023-03-23T21:04:52.767Z,20.13
2023-03-23T21:07:23.996Z,14.37
2023-03-23T21:09:53.976Z,20.93
2023-03-23T21:12:23.084Z,17.83
2023-03-23T21:14:51.755Z,15.53
2023-03-23T21:17:20.671Z,16.77
2023-03-23T21:19:50.999Z,15.93
2023-03-23T21:22:23.536Z,12.03
2023-03-23T21:24:52.806Z,11.27
2023-03-23T21:27:22.500Z,14.97
2023-03-23T21:29:50.989Z,17.73
2023-03-23T21:32:19.391Z,9.73
2023-03-23T21:34:48.174Z,13.10
2023-03-23T21:37:18.051Z,12.83
2023-03-23T21:39:46.960Z,12.37
2023-03-23T21:42:15.468Z,14.60
2023-03-23T21:44:43.885Z,11.43
2023-03-23T21:47:13.028Z,12.40
2023-03-23T21:49:41.995Z,13.27
2023-03-23T21:52:10.465Z,10.23
2023-03-23T21:54:41.304Z,13.53
2023-03-23T21:57:09.872Z,10.47
2023-03-23T21:59:38.463Z,9.93
2023-03-23T22:02:07.067Z,10.20
2023-03-23T22:04:35.616Z,10.00
2023-03-23T22:07:04.235Z,14.20
2023-03-23T22:09:34.387Z,10.73
2023-03-23T22:12:04.897Z,9.70
2023-03-23T22:14:33.491Z,9.97
2023-03-23T22:17:01.843Z,9.90
2023-03-23T22:19:30.884Z,11.10
2023-03-23T22:21:59.306Z,15.53
2023-03-23T22:24:27.719Z,10.53
2023-03-23T22:26:56.155Z,13.93
2023-03-23T22:29:26.279Z,8.37
2023-03-23T22:31:54.695Z,10.40
2023-03-23T22:34:23.088Z,11.17
2023-03-23T22:36:52.795Z,9.80
2023-03-23T22:39:21.281Z,10.17
2023-03-23T22:41:49.782Z,11.23
2023-03-23T22:44:19.484Z,11.97
2023-03-23T22:46:50.484Z,9.80
2023-03-23T22:49:18.952Z,12.20
2023-03-23T22:51:47.827Z,10.13
2023-03-23T22:54:16.248Z,10.33
2023-03-23T22:56:44.732Z,14.67
2023-03-23T22:59:13.718Z,10.90
2023-03-23T23:01:42.434Z,9.93
2023-03-23T23:04:12.241Z,8.70
2023-03-23T23:06:41.879Z,9.73
2023-03-23T23:09:10.518Z,9.30
2023-03-23T23:11:39.422Z,9.20
2023-03-23T23:14:08.243Z,7.27
2023-03-23T23:16:37.439Z,8.20
2023-03-23T23:19:06.047Z,11.83
2023-03-23T23:21:35.968Z,10.10
2023-03-23T23:24:04.853Z,10.77
2023-03-23T23:26:33.353Z,11.57
2023-03-23T23:29:02.826Z,7.67
2023-03-23T23:31:33.712Z,10.03
2023-03-23T23:34:02.658Z,10.13
2023-03-23T23:36:32.325Z,10.83
2023-03-23T23:39:03.468Z,8.73
2023-03-23T23:41:31.927Z,9.70
2023-03-23T23:44:00.603Z,9.33
2023-03-23T23:46:30.733Z,10.53
2023-03-23T23:48:59.288Z,7.03
2023-03-23T23:51:28.224Z,10.93
2023-03-23T23:53:59.275Z,9.43
2023-03-23T23:56:29.284Z,8.30
2023-03-23T23:58:57.672Z,6.53
